createdAt,value
2019-04-18T00:02:44.464Z,16.49
2019-04-18T00:05:52.606Z,15.36
2019-04-18T00:08:41.486Z,16.45
2019-04-18T00:11:30.411Z,16.35
2019-04-18T00:14:32.261Z,16.35
2019-04-18T00:17:09.798Z,16.42
2019-04-18T00:19:58.645Z,16.45
2019-04-18T00:22:47.484Z,16.48
2019-04-18T00:25:37.250Z,16.48
2019-04-18T00:28:26.914Z,16.21
2019-04-18T00:31:15.679Z,16.12
2019-04-18T00:34:13.412Z,16.06
2019-04-18T00:36:55.038Z,15.73
2019-04-18T00:39:43.824Z,16.04
2019-04-18T00:42:32.598Z,14.57
2019-04-18T00:45:13.976Z,15.83
2019-04-18T00:48:02.849Z,15.90
2019-04-18T00:53:59.368Z,15.79
2019-04-18T00:56:48.260Z,15.31
2019-04-18T00:59:37.054Z,15.55
2019-04-18T01:02:25.835Z,15.37
2019-04-18T01:08:43.093Z,15.39
2019-04-18T01:11:31.887Z,14.90
2019-04-18T01:14:39.765Z,15.25
2019-04-18T01:17:28.549Z,15.16
2019-04-18T01:20:36.501Z,15.05
2019-04-18T01:23:25.296Z,15.38
2019-04-18T01:26:14.505Z,14.04
2019-04-18T01:29:04.663Z,15.32
2019-04-18T01:35:01.726Z,15.35
2019-04-18T01:37:51.669Z,15.45
2019-04-18T01:40:40.459Z,15.04
2019-04-18T01:43:48.263Z,14.21
2019-04-18T01:49:36.259Z,14.54
2019-04-18T01:52:26.849Z,14.66
2019-04-18T01:55:18.490Z,14.28
2019-04-18T02:01:21.239Z,14.06
2019-04-18T02:04:11.110Z,14.11
2019-04-18T02:06:59.893Z,14.22
2019-04-18T02:09:48.665Z,14.19
2019-04-18T02:12:37.443Z,14.08
2019-04-18T02:15:28.859Z,13.95
2019-04-18T02:18:21.075Z,14.02
2019-04-18T02:21:10.250Z,13.42
2019-04-18T02:23:57.743Z,13.17
2019-04-18T02:26:49.484Z,13.22
2019-04-18T02:29:39.109Z,13.20
2019-04-18T02:32:27.597Z,13.33
2019-04-18T02:35:21.731Z,13.54
2019-04-18T02:38:07.346Z,13.67
2019-04-18T02:40:57.453Z,12.58
2019-04-18T02:43:46.480Z,12.87
2019-04-18T02:46:35.255Z,12.89
2019-04-18T02:49:27.511Z,13.38
2019-04-18T02:52:14.534Z,13.48
2019-04-18T03:01:33.163Z,13.29
2019-04-18T03:04:40.958Z,12.97
2019-04-18T03:07:29.754Z,12.93
2019-04-18T03:10:18.593Z,13.27
2019-04-18T03:13:07.381Z,11.67
2019-04-18T03:15:56.161Z,13.14
2019-04-18T03:18:44.951Z,11.98
2019-04-18T03:21:33.721Z,13.56
2019-04-18T03:24:22.515Z,13.37
2019-04-18T03:27:11.287Z,13.65
2019-04-18T03:30:00.084Z,13.73
2019-04-18T03:32:48.855Z,13.83
2019-04-18T03:35:48.598Z,13.66
2019-04-18T03:38:28.144Z,13.91
2019-04-18T03:41:16.924Z,12.61
2019-04-18T03:44:06.134Z,12.63
2019-04-18T03:49:50.612Z,13.83
2019-04-18T03:52:39.387Z,14.05
2019-04-18T03:55:28.157Z,14.03
2019-04-18T03:58:16.949Z,12.38
2019-04-18T04:00:58.923Z,12.65
2019-04-18T04:06:42.003Z,11.96
2019-04-18T04:09:34.003Z,12.88
2019-04-18T04:12:23.997Z,12.67
2019-04-18T04:15:16.687Z,12.63
2019-04-18T04:18:21.359Z,12.72
2019-04-18T04:21:10.125Z,13.02
2019-04-18T04:23:58.917Z,13.13
2019-04-18T04:26:47.719Z,11.72
2019-04-18T04:29:39.314Z,13.16
2019-04-18T04:32:29.065Z,11.89
2019-04-18T04:35:19.519Z,13.33
2019-04-18T04:38:08.276Z,13.64
2019-04-18T04:40:58.970Z,13.82
2019-04-18T04:43:47.575Z,13.90
2019-04-18T04:46:37.480Z,13.73
2019-04-18T04:49:27.990Z,12.41
2019-04-18T04:52:17.344Z,13.55
2019-04-18T04:58:25.054Z,13.77
2019-04-18T05:01:09.136Z,13.91
2019-04-18T05:03:57.923Z,14.07
2019-04-18T05:06:46.761Z,14.28
2019-04-18T05:09:38.927Z,13.98
2019-04-18T05:12:27.872Z,13.73
2019-04-18T05:15:16.976Z,13.15
2019-04-18T05:18:07.299Z,14.41
2019-04-18T05:21:15.113Z,14.55
2019-04-18T05:24:03.895Z,14.65
2019-04-18T05:26:52.684Z,14.62
2019-04-18T05:29:41.459Z,13.36
2019-04-18T05:32:31.171Z,15.04
2019-04-18T05:35:23.779Z,15.14
2019-04-18T05:38:11.354Z,14.15
2019-04-18T05:41:00.237Z,15.44
2019-04-18T05:43:49.021Z,15.39
2019-04-18T05:46:57.066Z,15.52
2019-04-18T05:50:06.129Z,15.72
2019-04-18T05:55:54.916Z,16.02
2019-04-18T05:59:04.653Z,16.22
2019-04-18T06:05:07.942Z,16.70
2019-04-18T06:11:26.260Z,16.44
2019-04-18T06:14:34.135Z,16.94
2019-04-18T06:17:41.907Z,16.89
2019-04-18T06:20:33.598Z,16.97
2019-04-18T06:26:35.804Z,17.27
2019-04-18T06:35:29.915Z,16.24
2019-04-18T06:38:19.984Z,16.14
2019-04-18T06:41:09.194Z,17.71
2019-04-18T06:43:58.168Z,18.03
2019-04-18T06:46:50.753Z,18.19
2019-04-18T06:49:40.026Z,18.46
2019-04-18T06:52:32.815Z,17.42
2019-04-18T06:55:20.007Z,18.36
2019-04-18T06:58:09.225Z,18.22
2019-04-18T07:00:50.831Z,18.85
2019-04-18T07:03:39.613Z,18.79
2019-04-18T07:06:32.702Z,19.06
2019-04-18T07:09:53.498Z,19.25
2019-04-18T07:15:24.307Z,19.43
2019-04-18T07:27:22.652Z,19.32
2019-04-18T07:30:11.687Z,19.24
2019-04-18T07:33:02.070Z,18.17
2019-04-18T07:35:50.843Z,18.23
2019-04-18T07:38:39.634Z,19.53
2019-04-18T07:41:28.405Z,19.68
2019-04-18T07:44:36.220Z,18.52
2019-04-18T07:47:44.034Z,19.38
2019-04-18T07:53:54.025Z,20.27
2019-04-18T07:56:42.822Z,19.82
2019-04-18T07:59:31.598Z,19.97
2019-04-18T08:02:20.380Z,20.00
2019-04-18T08:08:24.327Z,20.21
2019-04-18T08:11:13.611Z,20.16
2019-04-18T08:14:03.704Z,20.40
2019-04-18T08:16:52.477Z,20.60
2019-04-18T08:19:41.277Z,20.48
2019-04-18T08:22:49.071Z,20.37
2019-04-18T08:25:37.931Z,20.26
2019-04-18T08:28:26.724Z,20.56
2019-04-18T08:31:15.496Z,20.37
2019-04-18T08:34:04.298Z,20.69
2019-04-18T08:36:53.065Z,21.04
2019-04-18T08:42:40.560Z,21.20
2019-04-18T08:45:48.440Z,21.34
2019-04-18T08:48:57.856Z,21.20
2019-04-18T08:52:05.914Z,21.50
2019-04-18T08:54:48.974Z,21.33
2019-04-18T08:57:37.771Z,21.63
2019-04-18T09:03:55.127Z,21.79
2019-04-18T09:06:44.233Z,21.60
2019-04-18T09:09:34.139Z,21.70
2019-04-18T09:12:23.987Z,21.70
2019-04-18T09:18:29.927Z,21.62
2019-04-18T09:24:28.229Z,22.09
2019-04-18T09:27:20.420Z,21.67
2019-04-18T09:33:04.585Z,22.10
2019-04-18T09:35:58.177Z,22.25
2019-04-18T09:38:44.155Z,22.38
2019-04-18T09:41:33.352Z,22.52
2019-04-18T09:44:23.430Z,22.56
2019-04-18T09:47:17.137Z,21.63
2019-04-18T09:50:02.791Z,22.76
2019-04-18T09:52:51.579Z,22.85
2019-04-18T09:55:33.332Z,22.46
2019-04-18T09:58:22.274Z,23.10
2019-04-18T10:01:12.615Z,22.58
2019-04-18T10:04:01.390Z,22.66
2019-04-18T10:07:10.250Z,23.02
2019-04-18T10:09:59.754Z,23.00
2019-04-18T10:12:31.934Z,23.01
2019-04-18T10:18:36.269Z,23.11
2019-04-18T10:27:49.052Z,23.51
2019-04-18T10:33:47.241Z,22.60
2019-04-18T10:36:36.061Z,23.61
2019-04-18T10:39:25.673Z,23.89
2019-04-18T10:42:15.351Z,23.08
2019-04-18T10:48:32.610Z,24.13
2019-04-18T10:51:21.432Z,22.75
2019-04-18T10:54:10.730Z,24.04
2019-04-18T10:56:54.227Z,24.32
2019-04-18T10:59:43.005Z,24.50
2019-04-18T11:02:31.792Z,22.98
2019-04-18T11:05:20.818Z,24.28
2019-04-18T11:08:11.248Z,23.98
2019-04-18T11:11:00.080Z,23.17
2019-04-18T11:13:48.876Z,24.40
2019-04-18T11:16:37.704Z,23.18
2019-04-18T11:19:26.566Z,24.75
2019-04-18T11:22:15.373Z,24.77
2019-04-18T11:28:18.955Z,25.25
2019-04-18T11:31:07.801Z,25.14
2019-04-18T11:33:56.632Z,25.32
2019-04-18T11:36:45.442Z,25.28
2019-04-18T11:39:34.237Z,25.10
2019-04-18T11:42:23.013Z,25.49
2019-04-18T11:48:20.229Z,24.31
2019-04-18T11:51:09.007Z,24.63
2019-04-18T11:53:57.801Z,25.38
2019-04-18T11:56:46.655Z,25.57
2019-04-18T11:59:54.471Z,25.89
2019-04-18T12:02:44.209Z,25.27
2019-04-18T12:05:33.003Z,25.78
2019-04-18T12:08:21.782Z,25.85
2019-04-18T12:11:11.328Z,26.04
2019-04-18T12:14:01.732Z,26.15
2019-04-18T12:16:51.577Z,26.05
2019-04-18T12:19:40.358Z,26.16
2019-04-18T12:22:29.736Z,26.18
2019-04-18T12:25:19.721Z,26.15
2019-04-18T12:28:08.517Z,26.35
2019-04-18T12:30:57.386Z,26.56
2019-04-18T12:36:53.918Z,25.86
2019-04-18T12:39:42.702Z,25.52
2019-04-18T12:42:31.487Z,26.66
2019-04-18T12:45:21.204Z,26.44
2019-04-18T12:48:03.670Z,26.45
2019-04-18T12:50:52.447Z,25.98
2019-04-18T12:53:41.235Z,27.37
2019-04-18T12:56:30.996Z,26.94
2019-04-18T12:59:20.534Z,27.44
2019-04-18T13:02:09.312Z,27.72
2019-04-18T13:04:58.757Z,28.00
2019-04-18T13:19:52.322Z,28.86
2019-04-18T13:22:41.095Z,28.94
2019-04-18T13:25:29.891Z,29.10
2019-04-18T13:28:18.667Z,29.19
2019-04-18T13:31:07.544Z,29.70
2019-04-18T13:34:00.091Z,30.14
2019-04-18T13:36:39.514Z,30.88
2019-04-18T13:39:28.297Z,29.60
2019-04-18T13:42:17.086Z,30.72
2019-04-18T13:45:26.775Z,32.10
2019-04-18T13:48:15.571Z,32.28
2019-04-18T13:51:04.356Z,32.91
2019-04-18T13:53:57.192Z,34.35
2019-04-18T13:56:43.676Z,34.98
2019-04-18T13:59:32.572Z,35.26
2019-04-18T14:02:22.523Z,34.22
2019-04-18T14:05:12.461Z,34.87
2019-04-18T14:08:02.530Z,34.80
2019-04-18T14:10:51.320Z,34.85
2019-04-18T14:13:59.126Z,34.85
2019-04-18T14:16:47.922Z,35.69
2019-04-18T14:19:37.943Z,34.64
2019-04-18T14:25:21.411Z,35.08
2019-04-18T14:28:10.581Z,36.03
2019-04-18T14:31:04.517Z,35.79
2019-04-18T14:33:51.206Z,35.99
2019-04-18T14:36:32.981Z,36.51
2019-04-18T14:39:21.776Z,36.67
2019-04-18T14:42:10.623Z,35.96
2019-04-18T14:44:59.422Z,36.35
2019-04-18T14:48:01.672Z,34.18
2019-04-18T14:50:38.713Z,32.73
2019-04-18T14:53:27.506Z,34.52
2019-04-18T14:56:16.300Z,35.00
2019-04-18T14:59:05.252Z,33.54
2019-04-18T15:11:19.143Z,35.34
2019-04-18T15:14:07.938Z,34.60
2019-04-18T15:16:56.716Z,33.94
2019-04-18T15:19:45.578Z,34.84
2019-04-18T15:22:34.372Z,34.68
2019-04-18T15:28:53.458Z,34.74
2019-04-18T15:32:03.149Z,34.83
2019-04-18T15:34:52.017Z,33.92
2019-04-18T15:37:34.053Z,34.05
2019-04-18T15:43:45.364Z,34.54
2019-04-18T15:49:43.779Z,34.71
2019-04-18T15:52:32.551Z,34.88
2019-04-18T15:55:21.342Z,34.67
2019-04-18T15:58:10.119Z,34.38
2019-04-18T16:04:00.126Z,34.15
2019-04-18T16:06:48.591Z,34.36
2019-04-18T16:09:37.560Z,33.98
2019-04-18T16:12:26.331Z,33.22
2019-04-18T16:15:36.031Z,33.10
2019-04-18T16:18:24.823Z,33.19
2019-04-18T16:21:13.695Z,33.89
2019-04-18T16:24:02.486Z,34.22
2019-04-18T16:26:51.270Z,33.56
2019-04-18T16:29:40.073Z,32.82
2019-04-18T16:32:28.859Z,33.24
2019-04-18T16:35:39.645Z,32.63
2019-04-18T16:38:22.090Z,33.75
2019-04-18T16:41:10.859Z,33.33
2019-04-18T16:43:59.658Z,33.08
2019-04-18T16:46:48.431Z,32.96
2019-04-18T16:49:37.222Z,33.92
2019-04-18T16:52:27.684Z,33.58
2019-04-18T16:55:16.891Z,33.34
2019-04-18T16:58:05.741Z,32.22
2019-04-18T17:00:54.639Z,31.81
2019-04-18T17:03:51.703Z,33.05
2019-04-18T17:06:33.903Z,31.02
2019-04-18T17:09:41.708Z,32.71
2019-04-18T17:12:33.921Z,32.70
2019-04-18T17:15:13.603Z,32.74
2019-04-18T17:18:02.391Z,32.54
2019-04-18T17:20:51.231Z,31.14
2019-04-18T17:23:40.020Z,31.35
2019-04-18T17:26:28.803Z,31.25
2019-04-18T17:29:17.590Z,30.19
2019-04-18T17:32:06.369Z,29.76
2019-04-18T17:35:08.631Z,30.31
2019-04-18T17:38:01.581Z,30.04
2019-04-18T17:40:41.351Z,29.51
2019-04-18T17:43:20.942Z,29.44
2019-04-18T17:46:32.455Z,28.59
2019-04-18T17:49:24.061Z,27.45
2019-04-18T17:52:26.898Z,26.79
2019-04-18T17:55:17.243Z,26.38
2019-04-18T17:57:54.814Z,25.71
2019-04-18T18:00:45.769Z,25.17
2019-04-18T18:03:42.026Z,24.74
2019-04-18T18:06:28.522Z,24.15
2019-04-18T18:12:29.684Z,23.47
2019-04-18T18:15:10.081Z,21.75
2019-04-18T18:18:01.650Z,22.46
2019-04-18T18:20:55.889Z,22.12
2019-04-18T18:23:45.470Z,22.74
2019-04-18T18:26:32.914Z,22.45
2019-04-18T18:29:22.777Z,20.99
2019-04-18T18:32:12.758Z,22.40
2019-04-18T18:35:17.098Z,21.54
2019-04-18T18:38:01.278Z,21.90
2019-04-18T18:40:47.181Z,21.65
2019-04-18T18:43:34.680Z,21.49
2019-04-18T18:46:24.997Z,21.62
2019-04-18T18:52:23.506Z,21.43
2019-04-18T18:55:13.407Z,21.34
2019-04-18T18:58:03.036Z,20.42
2019-04-18T19:00:52.968Z,21.04
2019-04-18T19:03:44.158Z,20.92
2019-04-18T19:06:40.536Z,20.56
2019-04-18T19:09:39.647Z,19.71
2019-04-18T19:12:23.045Z,20.73
2019-04-18T19:15:47.465Z,20.69
2019-04-18T19:18:09.788Z,19.45
2019-04-18T19:21:01.523Z,19.04
2019-04-18T19:23:49.456Z,20.49
2019-04-18T19:26:40.264Z,20.47
2019-04-18T19:29:39.759Z,18.98
2019-04-18T19:32:20.836Z,20.07
2019-04-18T19:35:30.366Z,20.04
2019-04-18T19:38:23.168Z,19.95
2019-04-18T19:41:10.773Z,20.00
2019-04-18T19:43:43.634Z,19.97
2019-04-18T19:46:32.932Z,19.42
2019-04-18T19:49:23.597Z,19.88
2019-04-18T19:52:16.769Z,19.24
2019-04-18T19:58:32.338Z,18.98
2019-04-18T20:01:23.166Z,18.63
2019-04-18T20:04:13.892Z,19.91
2019-04-18T20:07:20.125Z,19.84
2019-04-18T20:10:06.650Z,19.79
2019-04-18T20:13:12.491Z,18.45
2019-04-18T20:15:54.999Z,19.60
2019-04-18T20:18:37.253Z,19.64
2019-04-18T20:21:26.166Z,19.64
2019-04-18T20:24:15.432Z,19.56
2019-04-18T20:27:10.961Z,19.44
2019-04-18T20:29:57.214Z,19.48
2019-04-18T20:32:47.015Z,17.94
2019-04-18T20:35:39.987Z,18.01
2019-04-18T20:38:33.663Z,19.39
2019-04-18T20:41:55.786Z,19.36
2019-04-18T20:44:24.167Z,19.19
2019-04-18T20:47:11.523Z,17.76
2019-04-18T20:50:01.905Z,19.08
2019-04-18T20:52:58.782Z,19.09
2019-04-18T20:55:43.795Z,19.13
2019-04-18T20:58:27.240Z,19.02
2019-04-18T21:01:11.988Z,19.03
2019-04-18T21:04:04.454Z,19.04
2019-04-18T21:07:05.160Z,18.87
2019-04-18T21:09:51.631Z,17.40
2019-04-18T21:12:25.600Z,17.36
2019-04-18T21:15:14.529Z,17.67
2019-04-18T21:18:06.523Z,18.79
2019-04-18T21:20:54.806Z,18.71
2019-04-18T21:23:44.634Z,18.64
2019-04-18T21:26:35.949Z,17.26
2019-04-18T21:29:26.338Z,18.45
2019-04-18T21:32:16.329Z,18.32
2019-04-18T21:35:28.895Z,18.30
2019-04-18T21:38:22.064Z,18.26
2019-04-18T21:41:08.263Z,18.16
2019-04-18T21:44:03.337Z,18.26
2019-04-18T21:46:51.076Z,17.12
2019-04-18T21:49:41.645Z,18.16
2019-04-18T21:52:28.726Z,18.05
2019-04-18T21:55:21.267Z,18.15
2019-04-18T21:58:11.160Z,18.13
2019-04-18T22:04:28.996Z,17.94
2019-04-18T22:07:22.276Z,17.72
2019-04-18T22:10:03.427Z,17.71
2019-04-18T22:12:54.881Z,17.73
2019-04-18T22:15:47.078Z,16.45
2019-04-18T22:18:28.025Z,17.62
2019-04-18T22:21:20.057Z,17.61
2019-04-18T22:24:08.244Z,17.70
2019-04-18T22:27:00.545Z,17.78
2019-04-18T22:29:49.662Z,17.83
2019-04-18T22:32:39.350Z,17.67
2019-04-18T22:35:28.487Z,17.72
2019-04-18T22:41:46.341Z,17.64
2019-04-18T22:44:36.192Z,17.70
2019-04-18T22:47:24.971Z,17.62
2019-04-18T22:50:15.781Z,17.57
2019-04-18T22:53:25.133Z,17.61
2019-04-18T22:56:15.277Z,17.56
2019-04-18T22:59:09.260Z,17.54
2019-04-18T23:01:59.436Z,17.28
2019-04-18T23:04:46.233Z,17.48
2019-04-18T23:07:43.927Z,17.37
2019-04-18T23:10:31.193Z,17.30
2019-04-18T23:13:21.949Z,15.82
2019-04-18T23:16:12.860Z,16.98
2019-04-18T23:19:00.427Z,17.25
2019-04-18T23:21:48.275Z,15.98
2019-04-18T23:24:37.066Z,17.18
2019-04-18T23:27:27.215Z,16.82
2019-04-18T23:30:19.575Z,16.86
2019-04-18T23:33:11.746Z,17.21
2019-04-18T23:35:56.523Z,17.24
2019-04-18T23:38:48.530Z,15.88
2019-04-18T23:41:36.228Z,17.23
2019-04-18T23:44:26.027Z,17.12
2019-04-18T23:47:16.346Z,17.06
2019-04-18T23:50:27.306Z,17.10
2019-04-18T23:53:16.827Z,17.02
2019-04-18T23:56:07.057Z,17.06
2019-04-18T23:58:57.605Z,15.65
